Time;durP1;ratioP1;P1;durP2;ratioP2;P2;SDS_P1;SDS_P2;PMS_P1;PMS_P2;Temp;Humidity;BMP_temperature;BMP_pressure;BME280_temperature;BME280_humidity;BME280_pressure;Samples;Min_cycle;Max_cycle;Signal;HPM_P1;HPM_P2
2021/10/27 00:01:50;;;;;;;37.88;21.10;;;;;;;11.48;81.30;100780.75;5074175;28;20056;-85
2021/10/27 00:04:17;;;;;;;25.77;20.90;;;;;;;11.28;82.57;100780.78;5073374;28;20139;-86
2021/10/27 00:06:44;;;;;;;28.33;20.65;;;;;;;11.67;80.95;100774.72;5073873;28;20508;-86
2021/10/27 00:09:11;;;;;;;23.40;17.80;;;;;;;11.69;81.20;100789.38;5072345;28;20470;-85
2021/10/27 00:11:38;;;;;;;30.75;20.77;;;;;;;11.54;81.99;100780.47;5060879;28;20497;-85
2021/10/27 00:14:05;;;;;;;28.73;20.58;;;;;;;11.42;82.69;100786.25;5072992;28;20040;-86
2021/10/27 00:16:33;;;;;;;30.83;21.10;;;;;;;11.34;83.40;100790.94;5073354;28;20059;-85
2021/10/27 00:19:00;;;;;;;32.30;23.73;;;;;;;11.37;83.05;100788.22;5073017;28;20044;-86
2021/10/27 00:21:27;;;;;;;31.10;21.77;;;;;;;11.41;83.25;100791.56;5073790;28;20120;-88
2021/10/27 00:23:54;;;;;;;26.58;21.58;;;;;;;11.43;82.89;100787.94;5072715;28;20082;-88
2021/10/27 00:26:21;;;;;;;29.65;22.65;;;;;;;11.50;82.80;100792.00;5073036;28;20090;-87
2021/10/27 00:28:47;;;;;;;30.05;22.88;;;;;;;11.64;82.00;100793.97;5072509;28;20060;-87
2021/10/27 00:31:15;;;;;;;29.15;23.20;;;;;;;11.46;83.08;100793.03;5073017;28;20037;-85
2021/10/27 00:33:43;;;;;;;33.53;21.98;;;;;;;11.41;83.99;100791.56;5072561;28;20041;-86
2021/10/27 00:36:11;;;;;;;28.40;22.83;;;;;;;11.39;84.11;100791.59;5072369;28;20513;-85
2021/10/27 00:38:38;;;;;;;26.15;21.15;;;;;;;11.39;84.27;100794.22;5073135;28;20044;-87
2021/10/27 00:41:07;;;;;;;27.00;20.25;;;;;;;11.57;83.48;100789.09;5055569;28;20108;-85
2021/10/27 00:43:39;;;;;;;40.40;23.38;;;;;;;11.58;83.18;100796.00;5053149;28;20085;-85
2021/10/27 00:46:17;;;;;;;30.67;21.30;;;;;;;11.52;83.30;100792.75;5051364;28;20041;-86
2021/10/27 00:48:44;;;;;;;28.58;20.52;;;;;;;11.45;83.40;100788.75;5052678;28;20040;-87
2021/10/27 00:51:12;;;;;;;29.83;20.95;;;;;;;11.51;82.94;100791.06;5052576;28;20087;-87
2021/10/27 00:53:39;;;;;;;21.48;18.40;;;;;;;11.65;81.73;100792.19;5053099;28;20048;-87
2021/10/27 00:56:07;;;;;;;29.52;18.48;;;;;;;11.73;80.23;100790.94;5053818;28;20040;-86
2021/10/27 00:58:35;;;;;;;23.40;17.00;;;;;;;11.78;80.78;100796.78;5061883;28;20403;-86
2021/10/27 01:01:04;;;;;;;24.98;17.52;;;;;;;11.86;80.78;100796.47;5052329;28;20155;-87
2021/10/27 01:03:33;;;;;;;21.85;15.48;;;;;;;11.85;80.24;100802.59;5052569;28;20119;-87
2021/10/27 01:05:59;;;;;;;23.42;16.80;;;;;;;11.80;79.69;100801.94;5052677;28;20040;-87
2021/10/27 01:08:26;;;;;;;22.52;16.45;;;;;;;11.70;79.39;100805.88;5057136;28;20094;-86
2021/10/27 01:10:54;;;;;;;18.35;14.65;;;;;;;11.51;79.69;100806.72;5072695;28;20036;-90
2021/10/27 01:13:21;;;;;;;26.10;17.30;;;;;;;11.46;79.57;100811.31;5071246;28;20044;-88
2021/10/27 01:15:48;;;;;;;22.65;16.20;;;;;;;11.50;80.20;100819.84;5072904;28;20462;-88
2021/10/27 01:18:14;;;;;;;34.95;23.77;;;;;;;10.99;85.14;100829.03;5071664;28;20479;-88
2021/10/27 01:20:41;;;;;;;25.67;20.33;;;;;;;10.86;86.59;100831.28;5072545;28;20040;-88
2021/10/27 01:23:08;;;;;;;29.55;22.42;;;;;;;10.61;88.42;100833.25;5072362;28;20050;-87
2021/10/27 01:25:35;;;;;;;33.47;22.30;;;;;;;10.84;87.62;100830.53;5052236;28;20041;-87
2021/10/27 01:28:02;;;;;;;31.70;20.83;;;;;;;10.66;88.70;100826.06;5051534;28;20056;-87
2021/10/27 01:30:29;;;;;;;27.33;21.60;;;;;;;10.74;88.73;100823.97;5052279;28;20041;-85
2021/10/27 01:32:56;;;;;;;35.85;20.92;;;;;;;10.84;87.57;100825.31;5051843;28;20041;-84
2021/10/27 01:35:23;;;;;;;29.58;20.15;;;;;;;10.73;88.17;100830.13;5066937;28;20041;-82
2021/10/27 01:37:50;;;;;;;26.90;21.60;;;;;;;10.80;88.39;100833.31;5071577;28;20132;-85
2021/10/27 01:40:19;;;;;;;30.42;20.25;;;;;;;10.92;87.62;100828.44;5070484;28;20037;-85
2021/10/27 01:42:52;;;;;;;27.20;20.13;;;;;;;11.05;86.74;100827.94;5055040;28;20037;-85
2021/10/27 01:45:19;;;;;;;29.17;18.92;;;;;;;11.05;87.14;100820.09;5052116;28;20048;-85
2021/10/27 01:47:46;;;;;;;29.92;20.38;;;;;;;11.17;86.21;100824.78;5059278;28;20041;-85
2021/10/27 01:50:15;;;;;;;25.67;20.25;;;;;;;11.32;85.38;100833.72;5070050;28;20037;-85
2021/10/27 01:52:42;;;;;;;30.30;23.35;;;;;;;11.20;85.36;100827.28;5072434;28;20135;-86
2021/10/27 01:55:09;;;;;;;26.63;21.45;;;;;;;11.29;85.01;100821.63;5071807;28;20473;-86
2021/10/27 01:57:36;;;;;;;30.02;20.98;;;;;;;11.26;85.09;100827.00;5077675;28;20097;-87
2021/10/27 02:00:06;;;;;;;31.13;20.20;;;;;;;11.23;84.92;100816.69;5082382;28;20049;-88
2021/10/27 02:02:37;;;;;;;23.40;19.40;;;;;;;11.09;85.46;100816.44;5071911;28;20048;-87
2021/10/27 02:05:05;;;;;;;23.98;19.40;;;;;;;11.05;85.73;100818.34;5072758;28;20041;-86
2021/10/27 02:07:32;;;;;;;23.77;19.35;;;;;;;10.94;86.31;100818.78;5071539;28;20049;-84
2021/10/27 02:09:59;;;;;;;28.90;19.80;;;;;;;10.98;86.53;100819.53;5073741;28;20045;-89
2021/10/27 02:12:26;;;;;;;25.90;21.20;;;;;;;11.08;86.09;100833.00;5076117;28;20440;-88
2021/10/27 02:14:53;;;;;;;27.13;18.73;;;;;;;10.96;86.45;100829.16;5076125;28;20047;-89
2021/10/27 02:17:20;;;;;;;25.25;19.70;;;;;;;10.87;86.98;100834.78;5074004;28;20048;-89
2021/10/27 02:19:47;;;;;;;25.30;18.33;;;;;;;10.76;87.97;100827.41;5076495;28;20051;-89
2021/10/27 02:22:14;;;;;;;24.85;18.83;;;;;;;10.82;87.71;100832.34;5074393;28;20089;-89
2021/10/27 02:24:41;;;;;;;27.00;17.92;;;;;;;10.94;87.36;100831.84;5075722;28;20094;-86
2021/10/27 02:27:08;;;;;;;30.85;20.40;;;;;;;10.80;88.16;100835.91;5075490;28;20049;-84
2021/10/27 02:29:36;;;;;;;27.45;18.90;;;;;;;10.94;87.14;100831.84;5075032;28;20051;-84
2021/10/27 02:32:03;;;;;;;28.90;18.40;;;;;;;10.92;87.14;100827.56;5075495;28;20470;-85
2021/10/27 02:34:32;;;;;;;25.80;19.00;;;;;;;10.88;87.61;100837.31;5075760;28;20040;-86
2021/10/27 02:36:59;;;;;;;25.60;19.20;;;;;;;10.66;88.73;100839.13;5063020;28;20136;-88
2021/10/27 02:39:26;;;;;;;32.75;20.52;;;;;;;10.59;89.99;100853.28;5074520;28;20059;-85
2021/10/27 02:41:53;;;;;;;27.50;17.55;;;;;;;10.45;90.99;100846.88;5075382;28;20066;-85
2021/10/27 02:44:20;;;;;;;25.98;18.58;;;;;;;10.44;90.88;100849.56;5074463;28;20391;-85
2021/10/27 02:46:48;;;;;;;24.63;16.65;;;;;;;10.39;90.93;100849.75;5074934;28;20044;-85
2021/10/27 02:49:16;;;;;;;27.15;17.98;;;;;;;10.41;91.50;100845.31;5074576;28;20506;-85
2021/10/27 02:51:43;;;;;;;27.77;18.92;;;;;;;10.27;91.74;100845.00;5075296;28;20094;-85
2021/10/27 02:54:10;;;;;;;23.05;17.23;;;;;;;10.15;93.02;100848.06;5074718;28;20048;-84
2021/10/27 02:56:37;;;;;;;24.52;17.92;;;;;;;10.03;93.81;100835.50;5074713;28;20118;-85
2021/10/27 02:59:04;;;;;;;22.38;17.33;;;;;;;10.07;93.83;100847.50;5070070;28;20040;-85
2021/10/27 03:01:31;;;;;;;26.77;16.63;;;;;;;10.01;93.21;100842.50;5054474;28;20388;-85
2021/10/27 03:03:58;;;;;;;23.95;16.15;;;;;;;10.04;92.65;100837.19;5054523;28;20395;-84
2021/10/27 03:06:25;;;;;;;26.52;17.55;;;;;;;9.99;92.30;100834.75;5054705;28;20040;-84
2021/10/27 03:08:51;;;;;;;22.42;15.45;;;;;;;9.94;92.20;100832.31;5061761;28;20040;-84
2021/10/27 03:11:18;;;;;;;24.27;17.58;;;;;;;9.86;91.72;100826.56;5054414;28;20048;-84
2021/10/27 03:13:45;;;;;;;21.65;15.43;;;;;;;9.79;91.63;100832.91;5054903;28;20120;-85
2021/10/27 03:16:12;;;;;;;19.35;13.77;;;;;;;9.88;90.44;100831.72;5057967;28;20071;-85
2021/10/27 03:18:40;;;;;;;20.88;14.90;;;;;;;9.97;89.45;100832.22;5074803;28;20448;-84
2021/10/27 03:21:07;;;;;;;19.75;14.95;;;;;;;9.92;89.12;100831.56;5074061;28;20122;-84
2021/10/27 03:23:34;;;;;;;19.38;14.02;;;;;;;9.90;89.00;100835.94;5074661;28;20040;-85
2021/10/27 03:26:01;;;;;;;20.10;14.82;;;;;;;9.88;88.70;100827.34;5074704;28;20037;-84
2021/10/27 03:28:28;;;;;;;21.63;14.68;;;;;;;9.87;88.53;100825.66;5073662;28;20070;-84
2021/10/27 03:30:55;;;;;;;22.38;15.38;;;;;;;9.84;88.32;100833.59;5074012;28;20032;-85
2021/10/27 03:33:22;;;;;;;23.80;12.70;;;;;;;9.83;88.68;100833.66;5073926;28;20070;-85
2021/10/27 03:35:50;;;;;;;19.98;15.02;;;;;;;9.76;89.20;100833.03;5072727;28;20044;-84
2021/10/27 03:38:17;;;;;;;19.10;12.60;;;;;;;9.80;88.83;100836.34;5073471;28;20557;-85
2021/10/27 03:40:45;;;;;;;17.75;14.27;;;;;;;9.74;89.20;100842.63;5063766;28;20524;-86
2021/10/27 03:43:14;;;;;;;29.35;16.00;;;;;;;9.61;89.81;100831.84;5074183;28;20058;-86
2021/10/27 03:45:41;;;;;;;24.58;13.70;;;;;;;9.51;90.94;100840.03;5073862;28;20089;-85
2021/10/27 03:48:09;;;;;;;21.15;13.32;;;;;;;9.51;91.01;100842.63;5073731;28;20108;-86
2021/10/27 03:50:38;;;;;;;24.60;15.50;;;;;;;9.50;90.79;100841.78;5074016;28;20068;-86
2021/10/27 03:53:04;;;;;;;20.90;16.20;;;;;;;9.43;91.38;100835.97;5072580;28;20041;-86
2021/10/27 03:55:31;;;;;;;21.52;13.30;;;;;;;9.33;91.90;100844.16;5073601;28;20094;-86
2021/10/27 03:57:58;;;;;;;19.10;13.68;;;;;;;9.42;91.33;100838.59;5073873;28;20139;-88
2021/10/27 04:00:26;;;;;;;22.70;15.38;;;;;;;9.30;91.62;100844.25;5073224;28;20405;-89
2021/10/27 04:02:53;;;;;;;20.35;14.57;;;;;;;9.30;91.81;100842.50;5074110;28;20044;-86
2021/10/27 04:05:20;;;;;;;17.52;13.75;;;;;;;9.27;92.50;100840.03;5073291;28;20098;-89
2021/10/27 04:07:47;;;;;;;22.65;14.00;;;;;;;9.36;92.00;100844.03;5073392;28;20060;-89
2021/10/27 04:10:14;;;;;;;18.20;12.80;;;;;;;9.32;92.06;100843.31;5073711;28;20041;-89
2021/10/27 04:12:41;;;;;;;18.50;13.50;;;;;;;9.36;91.99;100846.63;5073375;28;20055;-88
2021/10/27 04:15:11;;;;;;;18.15;13.23;;;;;;;9.42;91.26;100849.00;5072050;28;20128;-87
2021/10/27 04:17:38;;;;;;;16.83;12.68;;;;;;;9.42;91.16;100843.81;5073261;28;20081;-86
2021/10/27 04:20:08;;;;;;;22.88;15.23;;;;;;;9.34;91.53;100845.84;5073866;28;20040;-87
2021/10/27 04:22:37;;;;;;;22.30;14.73;;;;;;;9.27;92.04;100845.22;5072197;28;20090;-86
2021/10/27 04:25:06;;;;;;;20.27;13.70;;;;;;;9.18;92.43;100846.38;5053715;28;20041;-86
2021/10/27 04:27:32;;;;;;;21.35;15.35;;;;;;;9.18;92.63;100846.38;5052910;28;20052;-85
2021/10/27 04:29:59;;;;;;;23.00;17.05;;;;;;;9.15;92.98;100856.03;5053663;28;20049;-85
2021/10/27 04:32:26;;;;;;;21.98;15.32;;;;;;;9.08;93.54;100858.00;5052669;28;20495;-87
2021/10/27 04:34:52;;;;;;;25.00;18.15;;;;;;;9.06;93.91;100852.00;5056448;28;20040;-88
2021/10/27 04:37:19;;;;;;;20.02;16.33;;;;;;;9.12;93.91;100848.34;5072477;28;20036;-87
2021/10/27 04:39:46;;;;;;;24.00;16.08;;;;;;;9.21;93.46;100854.97;5063738;28;20036;-87
2021/10/27 04:42:14;;;;;;;21.98;15.07;;;;;;;9.08;93.71;100851.94;5068805;28;20044;-89
2021/10/27 04:44:41;;;;;;;27.65;15.82;;;;;;;9.06;93.85;100859.81;5065995;28;20151;-86
2021/10/27 04:47:07;;;;;;;18.60;15.40;;;;;;;9.11;93.41;100857.06;5059443;28;20399;-85
2021/10/27 04:49:34;;;;;;;29.02;17.73;;;;;;;8.96;93.88;100858.41;5055387;28;20094;-84
2021/10/27 04:52:01;;;;;;;27.45;16.85;;;;;;;9.02;93.56;100865.16;5059714;28;20049;-85
2021/10/27 04:54:28;;;;;;;24.33;16.02;;;;;;;9.09;93.42;100859.69;5071746;28;20088;-85
2021/10/27 04:56:55;;;;;;;23.25;17.02;;;;;;;9.11;95.07;100854.47;5066157;28;20540;-85
2021/10/27 04:59:21;;;;;;;44.65;19.92;;;;;;;9.15;97.44;100856.03;5062647;28;20036;-86
2021/10/27 05:01:48;;;;;;;32.03;17.80;;;;;;;8.99;96.97;100858.31;5056642;28;20066;-87
2021/10/27 05:04:15;;;;;;;27.70;16.65;;;;;;;8.95;96.27;100858.44;5058689;28;20087;-87
2021/10/27 05:06:43;;;;;;;27.23;17.48;;;;;;;8.95;95.11;100861.94;5065100;28;20045;-84
2021/10/27 05:09:09;;;;;;;22.40;16.30;;;;;;;8.92;93.80;100860.25;5061103;28;20036;-89
2021/10/27 05:11:37;;;;;;;24.25;17.40;;;;;;;8.76;94.77;100858.22;5066407;28;20040;-88
2021/10/27 05:14:04;;;;;;;22.40;14.73;;;;;;;8.69;94.92;100862.78;5058928;28;20033;-86
2021/10/27 05:16:31;;;;;;;24.98;16.85;;;;;;;8.82;94.27;100866.66;5062298;28;20029;-87
2021/10/27 05:18:57;;;;;;;27.63;14.77;;;;;;;8.79;94.40;100860.72;5069055;28;20047;-89
2021/10/27 05:21:24;;;;;;;22.90;15.35;;;;;;;8.73;94.46;100859.16;5066052;28;20040;-91
2021/10/27 05:23:51;;;;;;;23.42;16.65;;;;;;;8.70;95.22;100867.06;5064050;28;20097;-86
2021/10/27 05:26:18;;;;;;;21.52;16.77;;;;;;;8.64;95.09;100860.31;5059339;28;20098;-86
2021/10/27 05:28:45;;;;;;;23.60;16.45;;;;;;;8.68;94.93;100871.44;5056987;28;20456;-87
2021/10/27 05:31:14;;;;;;;29.10;17.88;;;;;;;8.66;94.84;100878.47;5050639;28;20037;-87
2021/10/27 05:33:41;;;;;;;21.30;15.13;;;;;;;8.72;94.49;100874.81;5082866;28;20044;-87
2021/10/27 05:36:07;;;;;;;27.33;16.40;;;;;;;8.76;94.51;100871.22;5058050;28;20037;-86
2021/10/27 05:38:34;;;;;;;24.35;15.93;;;;;;;8.83;94.37;100873.56;5051991;28;20388;-86
2021/10/27 05:41:05;;;;;;;26.55;16.98;;;;;;;8.81;94.53;100866.72;5058632;28;20048;-85
2021/10/27 05:43:33;;;;;;;24.00;16.50;;;;;;;9.01;94.11;100877.31;5063802;28;20036;-93
2021/10/27 05:46:01;;;;;;;23.45;18.02;;;;;;;8.96;94.41;100873.19;5064111;28;20410;-83
2021/10/27 05:48:36;;;;;;;21.38;16.25;;;;;;;8.99;95.06;100880.84;5068012;28;20033;-83
2021/10/27 05:56:22;;;;;;;24.52;17.27;;;;;;;9.14;95.05;100867.34;5063259;28;20044;-85
2021/10/27 05:58:52;;;;;;;28.17;14.80;;;;;;;9.23;94.70;100874.84;5061850;28;20041;-84
2021/10/27 06:01:20;;;;;;;28.00;16.58;;;;;;;9.28;94.49;100880.75;5060238;28;20115;-85
2021/10/27 06:03:47;;;;;;;22.10;16.77;;;;;;;9.32;94.57;100878.84;5060977;28;20112;-84
2021/10/27 06:06:14;;;;;;;26.70;17.17;;;;;;;9.36;94.03;100876.09;5063123;28;20036;-84
2021/10/27 06:08:41;;;;;;;23.95;15.57;;;;;;;9.45;93.00;100878.38;5065056;28;20076;-82
2021/10/27 06:11:10;;;;;;;25.95;15.90;;;;;;;9.45;92.76;100874.94;5066673;28;20044;-83
2021/10/27 06:13:46;;;;;;;23.38;16.52;;;;;;;9.38;92.96;100874.31;5067749;28;20064;-79
2021/10/27 06:16:14;;;;;;;23.08;15.70;;;;;;;9.41;92.75;100876.78;5059344;28;20041;-82
2021/10/27 06:18:43;;;;;;;24.35;15.32;;;;;;;9.54;92.64;100890.25;5064513;28;20048;-80
2021/10/27 06:21:12;;;;;;;24.45;15.15;;;;;;;9.59;91.64;100892.69;5072002;28;20106;-80
2021/10/27 06:23:40;;;;;;;24.55;17.75;;;;;;;9.70;91.46;100887.94;5069036;28;20045;-79
2021/10/27 06:26:07;;;;;;;21.80;14.95;;;;;;;9.73;91.22;100889.56;5068969;28;20049;-80
2021/10/27 06:28:55;;;;;;;22.17;16.55;;;;;;;9.79;90.94;100900.59;5063172;28;20041;-80
2021/10/27 06:31:29;;;;;;;22.08;16.73;;;;;;;9.86;90.36;100901.25;5061300;28;20053;-80
2021/10/27 06:36:38;;;;;;;20.23;14.00;;;;;;;10.08;89.08;100909.13;5057463;28;20033;-77
2021/10/27 06:39:23;;;;;;;19.85;15.07;;;;;;;10.12;88.48;100905.47;5072899;28;20439;-80
2021/10/27 06:47:24;;;;;;;20.80;15.30;;;;;;;10.29;87.14;100926.56;5063723;28;20040;-81
2021/10/27 06:49:51;;;;;;;23.85;14.88;;;;;;;10.28;86.98;100932.69;5059580;28;20103;-81
2021/10/27 06:52:18;;;;;;;26.20;16.25;;;;;;;10.38;87.22;100939.22;5057921;28;20476;-79
2021/10/27 06:54:51;;;;;;;27.27;15.27;;;;;;;10.44;86.60;100939.03;5059164;28;20098;-80
2021/10/27 06:57:22;;;;;;;20.25;13.60;;;;;;;10.65;85.81;100944.28;5062734;28;20036;-78
2021/10/27 06:59:51;;;;;;;26.95;16.38;;;;;;;10.52;86.42;100953.50;5055980;28;20041;-80
2021/10/27 07:16:17;;;;;;;27.52;19.83;;;;;;;9.94;89.28;100961.69;5056926;28;20082;-79
2021/10/27 07:18:43;;;;;;;31.83;20.75;;;;;;;10.13;88.94;100969.72;5060195;28;20551;-80
2021/10/27 07:21:10;;;;;;;32.10;21.73;;;;;;;10.03;88.47;100971.78;5057405;28;20436;-80
2021/10/27 07:23:40;;;;;;;26.63;18.30;;;;;;;10.09;88.68;100978.53;5064373;28;20489;-79
2021/10/27 07:26:07;;;;;;;30.17;20.08;;;;;;;10.07;89.06;100982.97;5054600;28;20037;-79
2021/10/27 07:28:34;;;;;;;26.77;17.67;;;;;;;10.18;88.55;100975.59;5053310;28;20083;-79
2021/10/27 07:31:03;;;;;;;32.67;19.33;;;;;;;10.44;87.43;100980.72;5065082;28;20482;-81
2021/10/27 07:33:31;;;;;;;33.25;19.55;;;;;;;10.42;87.00;100982.53;5062112;28;20458;-80
2021/10/27 07:36:05;;;;;;;36.83;20.05;;;;;;;10.45;86.84;100987.63;5060873;28;20041;-81
2021/10/27 07:41:17;;;;;;;28.63;18.08;;;;;;;10.73;85.69;100990.03;5056564;28;20094;-81
2021/10/27 07:43:45;;;;;;;34.13;18.63;;;;;;;10.86;85.27;100997.38;5062995;28;20068;-81
2021/10/27 07:46:12;;;;;;;30.63;19.15;;;;;;;10.84;85.41;100992.22;5061394;28;20041;-79
2021/10/27 07:48:39;;;;;;;27.42;18.45;;;;;;;10.95;85.17;101002.22;5053374;28;20518;-77
2021/10/27 07:51:06;;;;;;;34.25;21.08;;;;;;;10.99;85.43;100996.00;5063012;28;20037;-78
2021/10/27 07:53:33;;;;;;;34.25;20.13;;;;;;;10.95;85.92;101004.84;5056900;28;20438;-78
2021/10/27 07:56:04;;;;;;;26.90;17.90;;;;;;;11.06;84.62;100996.59;5060411;28;20106;-79
2021/10/27 07:58:31;;;;;;;25.95;17.27;;;;;;;11.21;84.07;101007.25;5060418;28;20041;-80
2021/10/27 08:00:59;;;;;;;30.10;18.58;;;;;;;11.30;83.39;101013.88;5054743;28;20044;-78
2021/10/27 08:03:28;;;;;;;26.33;17.85;;;;;;;11.38;82.48;101005.72;5057308;28;20071;-79
2021/10/27 08:05:59;;;;;;;26.02;17.77;;;;;;;11.40;82.79;101006.50;5062391;28;20036;-77
2021/10/27 08:08:26;;;;;;;23.35;17.75;;;;;;;11.48;81.97;101009.66;5065913;28;20040;-80
2021/10/27 08:10:52;;;;;;;24.38;18.92;;;;;;;11.59;79.90;101009.22;5057845;28;20056;-79
2021/10/27 08:13:20;;;;;;;37.30;21.50;;;;;;;11.64;79.85;101008.09;5058938;28;20391;-81
2021/10/27 08:15:47;;;;;;;29.42;20.42;;;;;;;11.76;77.54;101010.19;5054771;28;20045;-82
2021/10/27 08:18:17;;;;;;;32.28;21.58;;;;;;;11.79;76.15;101011.81;5071376;28;20087;-81
2021/10/27 08:20:45;;;;;;;32.70;20.92;;;;;;;11.82;75.64;101009.09;5070119;28;20040;-79
2021/10/27 08:23:15;;;;;;;33.75;21.10;;;;;;;11.90;74.22;101020.09;5061793;28;20044;-81
2021/10/27 08:25:48;;;;;;;39.22;22.33;;;;;;;11.94;73.98;100997.28;5072311;28;20090;-80
2021/10/27 08:28:18;;;;;;;35.63;25.17;;;;;;;11.93;72.71;101004.28;5063293;28;20127;-79
2021/10/27 08:31:06;;;;;;;35.92;22.15;;;;;;;12.05;73.13;101005.50;5055742;28;20041;-80
2021/10/27 08:33:43;;;;;;;33.15;22.88;;;;;;;12.13;73.21;101007.78;5065167;28;20049;-79
2021/10/27 08:36:12;;;;;;;33.70;21.70;;;;;;;12.23;72.99;101006.44;5055648;28;20059;-84
2021/10/27 08:38:39;;;;;;;37.05;22.40;;;;;;;12.20;72.50;101012.69;5070164;28;20052;-83
2021/10/27 08:41:27;;;;;;;29.25;22.05;;;;;;;12.23;72.51;101007.28;5069987;28;20430;-81
2021/10/27 08:43:54;;;;;;;47.55;22.73;;;;;;;12.32;71.68;101006.03;5056611;28;20046;-86
2021/10/27 08:46:22;;;;;;;39.42;24.10;;;;;;;12.42;71.48;101001.25;5068382;28;20067;-91
2021/10/27 08:48:51;;;;;;;37.15;22.42;;;;;;;12.50;70.93;100999.13;5064756;28;20049;-91
2021/10/27 08:51:19;;;;;;;37.50;23.25;;;;;;;12.55;70.75;100999.75;5060273;28;20047;-89
2021/10/27 08:53:47;;;;;;;32.30;21.00;;;;;;;12.65;69.83;101000.19;5059959;28;20488;-84
2021/10/27 08:56:13;;;;;;;27.40;21.90;;;;;;;12.56;67.50;100991.81;5060737;28;20040;-82
2021/10/27 08:58:43;;;;;;;29.20;20.92;;;;;;;12.75;67.92;101002.28;5065185;28;20445;-82
2021/10/27 09:01:22;;;;;;;35.25;20.50;;;;;;;12.84;67.93;101004.50;5056422;28;20037;-81
2021/10/27 09:35:07;;;;;;;26.13;20.92;;;;;;;13.53;56.64;100980.19;5062374;28;20048;-81
2021/10/27 10:05:16;;;;;;;32.17;19.52;;;;;;;14.29;55.44;100985.84;5059500;28;20052;-86
2021/10/27 10:07:44;;;;;;;28.80;20.25;;;;;;;14.39;55.29;100994.06;5068662;28;20041;-87
2021/10/27 10:10:13;;;;;;;25.52;18.73;;;;;;;14.49;55.31;100991.78;5061190;28;20049;-83
2021/10/27 10:12:51;;;;;;;20.08;15.05;;;;;;;14.51;55.02;100989.97;5063274;28;20066;-86
2021/10/27 10:15:21;;;;;;;24.50;18.00;;;;;;;14.40;55.56;100993.97;5067373;28;20475;-82
2021/10/27 10:17:51;;;;;;;29.60;17.70;;;;;;;14.55;55.86;100992.34;5058889;28;20530;-83
2021/10/27 10:20:20;;;;;;;28.60;20.08;;;;;;;14.53;55.37;100988.94;5059860;28;20037;-83
2021/10/27 10:23:24;;;;;;;25.73;17.77;;;;;;;14.58;55.49;100986.91;5059264;28;20045;-82
2021/10/27 10:25:55;;;;;;;23.45;15.50;;;;;;;14.54;55.91;100980.16;5053795;28;20041;-83
2021/10/27 10:28:26;;;;;;;18.92;14.00;;;;;;;14.72;55.45;100982.69;5055023;28;20438;-82
2021/10/27 10:31:00;;;;;;;25.05;17.45;;;;;;;14.86;55.81;100980.13;5058017;28;20099;-82
2021/10/27 10:33:45;;;;;;;30.58;19.50;;;;;;;14.91;56.59;100980.69;5064752;28;20120;-82
2021/10/27 10:36:22;;;;;;;;;;;;;;;14.63;56.87;100979.63;5054829;28;20136;-83
2021/10/27 11:01:57;;;;;;;28.98;21.00;;;;;;;15.17;55.84;100966.94;5058882;28;20156;-83
2021/10/27 11:23:58;;;;;;;19.80;15.52;;;;;;;15.22;52.07;100947.44;5072815;28;20059;-81
2021/10/27 11:40:28;;;;;;;23.08;15.75;;;;;;;15.44;50.55;100927.69;5059184;28;20099;-81
2021/10/27 11:43:03;;;;;;;20.60;16.45;;;;;;;15.63;50.27;100927.50;5068698;28;20070;-81
2021/10/27 11:48:31;;;;;;;15.88;12.85;;;;;;;15.48;46.93;100924.91;5058311;28;20045;-82
2021/10/27 11:50:54;;;;;;;19.67;13.75;;;;;;;15.65;47.32;100916.88;5061137;28;20044;-81
2021/10/27 11:53:31;;;;;;;21.77;13.60;;;;;;;15.85;47.40;100913.03;5065718;28;20036;-81
2021/10/27 11:56:08;;;;;;;25.50;16.02;;;;;;;15.86;47.85;100912.09;5054846;28;20048;-80
2021/10/27 11:58:38;;;;;;;19.13;15.45;;;;;;;15.56;48.65;100902.50;5068850;28;20032;-80
2021/10/27 12:01:06;;;;;;;20.42;15.85;;;;;;;15.55;48.78;100911.28;5059852;28;20102;-80
2021/10/27 12:03:38;;;;;;;20.10;15.68;;;;;;;15.61;49.08;100899.59;5064296;28;20040;-80
2021/10/27 12:06:36;;;;;;;19.83;14.77;;;;;;;15.53;47.53;100892.16;5061868;28;20087;-81
2021/10/27 12:09:30;;;;;;;17.60;12.35;;;;;;;15.65;46.40;100894.06;5072604;28;20095;-81
2021/10/27 12:12:17;;;;;;;17.07;13.20;;;;;;;15.72;46.34;100889.31;5070875;28;20461;-78
2021/10/27 12:17:51;;;;;;;25.75;16.67;;;;;;;15.85;48.49;100868.34;5071646;28;20036;-78
2021/10/27 12:20:39;;;;;;;19.77;14.38;;;;;;;15.84;47.70;100864.03;5071688;28;20491;-79
2021/10/27 12:23:16;;;;;;;23.83;17.30;;;;;;;15.71;48.69;100869.19;5068430;28;20067;-79
2021/10/27 12:25:43;;;;;;;24.27;16.75;;;;;;;15.96;47.90;100864.09;5066248;28;20113;-78
2021/10/27 12:28:32;;;;;;;21.13;16.15;;;;;;;16.04;46.92;100860.16;5071628;28;20048;-79
2021/10/27 12:31:18;;;;;;;25.77;16.05;;;;;;;15.96;48.50;100858.84;5072247;28;20056;-76
2021/10/27 12:33:47;;;;;;;23.42;15.88;;;;;;;16.09;48.30;100860.72;5074444;28;20052;-80
2021/10/27 12:36:26;;;;;;;25.38;16.38;;;;;;;15.94;48.01;100859.91;5074145;28;20032;-80
2021/10/27 12:41:48;;;;;;;27.42;17.73;;;;;;;15.83;47.99;100852.69;5070110;28;20041;-77
2021/10/27 12:44:24;;;;;;;24.30;18.67;;;;;;;15.84;48.30;100849.09;5064189;28;20136;-80
2021/10/27 12:47:12;;;;;;;31.08;18.80;;;;;;;15.95;47.99;100851.91;5064154;28;20530;-81
2021/10/27 12:49:41;;;;;;;28.85;21.15;;;;;;;15.84;47.82;100849.09;5062854;28;20657;-79
2021/10/27 12:52:28;;;;;;;29.75;20.23;;;;;;;15.79;47.71;100840.66;5067997;28;20043;-81
2021/10/27 12:55:24;;;;;;;26.10;18.92;;;;;;;15.99;47.48;100834.16;5063406;28;20044;-79
2021/10/27 12:58:16;;;;;;;24.70;17.38;;;;;;;15.99;47.07;100842.06;5064186;28;20052;-80
2021/10/27 13:01:02;;;;;;;24.27;16.95;;;;;;;15.80;46.80;100837.09;5061638;28;20113;-77
2021/10/27 13:04:08;;;;;;;24.10;18.23;;;;;;;15.85;47.07;100845.53;5061622;28;20033;-82
2021/10/27 13:06:38;;;;;;;25.40;19.33;;;;;;;15.71;47.25;100838.53;5054307;28;20041;-82
2021/10/27 13:17:35;;;;;;;23.05;16.77;;;;;;;15.84;46.89;100827.22;5069387;28;20040;-83
2021/10/27 13:33:16;;;;;;;23.10;16.00;;;;;;;16.02;46.97;100814.69;5067178;28;20399;-81
2021/10/27 13:35:43;;;;;;;25.13;16.52;;;;;;;15.95;46.54;100815.09;5068738;28;20079;-81
2021/10/27 13:38:10;;;;;;;27.77;17.98;;;;;;;15.94;46.73;100813.41;5070206;28;20048;-85
2021/10/27 13:40:42;;;;;;;27.88;19.08;;;;;;;16.00;47.09;100806.91;5059325;28;20032;-82
2021/10/27 14:07:21;;;;;;;23.05;16.42;;;;;;;15.96;47.21;100808.06;5071626;28;20090;-81
2021/10/27 14:09:53;;;;;;;22.52;16.75;;;;;;;15.88;47.17;100802.44;5062226;28;20548;-81
2021/10/27 14:47:25;;;;;;;25.60;16.00;;;;;;;15.74;47.66;100784.91;5066314;28;20102;-82
2021/10/27 15:20:46;;;;;;;25.63;15.50;;;;;;;15.22;51.13;100761.81;5065251;28;20068;-79
2021/10/27 15:23:29;;;;;;;24.40;16.20;;;;;;;15.20;51.22;100756.66;5063335;28;20178;-82
2021/10/27 15:28:47;;;;;;;25.60;15.75;;;;;;;15.08;51.64;100759.22;5062833;28;20045;-83
2021/10/27 15:31:44;;;;;;;27.63;16.30;;;;;;;14.99;51.89;100760.59;5065116;28;20041;-84
2021/10/27 15:42:38;;;;;;;16.30;12.55;;;;;;;14.23;58.11;100759.81;5040932;28;20496;-85
2021/10/27 15:45:16;;;;;;;35.22;13.48;;;;;;;14.02;58.43;100760.09;5062964;28;20052;-84
2021/10/27 15:52:55;;;;;;;21.95;14.65;;;;;;;13.81;58.81;100749.03;5067717;28;20399;-82
2021/10/27 15:55:22;;;;;;;23.42;14.55;;;;;;;13.71;58.91;100747.00;5072488;28;20041;-83
2021/10/27 15:57:48;;;;;;;21.45;13.25;;;;;;;13.61;58.92;100741.41;5071139;28;20048;-82
2021/10/27 16:00:16;;;;;;;22.88;14.20;;;;;;;13.54;59.06;100746.16;5072440;28;20522;-82
2021/10/27 16:02:42;;;;;;;19.95;13.40;;;;;;;13.53;59.21;100749.69;5063061;28;20036;-81
2021/10/27 16:05:11;;;;;;;24.42;14.00;;;;;;;13.40;59.83;100747.81;5070271;28;20040;-82
2021/10/27 16:07:41;;;;;;;19.83;14.10;;;;;;;13.31;60.06;100749.97;5073655;28;20063;-81